Time;durP1;ratioP1;P1;durP2;ratioP2;P2;SDS_P1;SDS_P2;PMS_P1;PMS_P2;Temp;Humidity;BMP_temperature;BMP_pressure;BME280_temperature;BME280_humidity;BME280_pressure;Samples;Min_cycle;Max_cycle;Signal;HPM_P1;HPM_P2
2023/08/20 00:01:05;;;;;;;10.80;6.65;;;;;;;24.52;100.00;100102.59;12214449;19;20028;-84
2023/08/20 00:05:07;;;;;;;13.63;6.53;;;;;;;24.49;100.00;100100.47;12199025;19;20082;-84
2023/08/20 00:09:09;;;;;;;;;;;;;;;24.45;100.00;100113.56;12216902;19;20011;-84
2023/08/20 00:13:11;;;;;;;10.93;6.15;;;;;;;24.45;100.00;100110.75;12243790;19;19942;-83
2023/08/20 00:17:13;;;;;;;13.03;6.23;;;;;;;24.42;100.00;100107.72;12232367;19;20047;-83
2023/08/20 00:21:15;;;;;;;9.23;6.15;;;;;;;24.34;100.00;100110.25;12211085;19;20011;-83
2023/08/20 00:25:17;;;;;;;11.10;5.40;;;;;;;24.31;100.00;100118.53;12222584;19;20006;-84
2023/08/20 00:29:19;;;;;;;17.08;7.18;;;;;;;24.24;100.00;100121.88;12193260;19;20006;-83
2023/08/20 00:33:21;;;;;;;12.98;6.93;;;;;;;24.19;100.00;100122.03;12212669;19;20414;-84
2023/08/20 00:37:23;;;;;;;12.27;7.13;;;;;;;24.13;100.00;100133.81;12213594;19;20014;-84
2023/08/20 00:41:25;;;;;;;14.30;6.70;;;;;;;24.06;100.00;100137.97;12195236;19;20653;-84
2023/08/20 00:45:27;;;;;;;11.40;6.00;;;;;;;23.99;100.00;100132.00;12220998;19;20263;-84
2023/08/20 00:49:30;;;;;;;13.02;6.00;;;;;;;23.92;100.00;100134.50;12216344;19;20708;-84
2023/08/20 00:53:31;;;;;;;12.88;6.78;;;;;;;23.81;100.00;100139.63;12194690;19;20010;-83
2023/08/20 00:57:34;;;;;;;17.93;7.67;;;;;;;23.71;100.00;100139.09;12215391;19;20592;-83
2023/08/20 01:01:38;;;;;;;15.25;7.05;;;;;;;23.61;100.00;100129.78;12220942;19;20015;-83
2023/08/20 01:05:50;;;;;;;11.32;6.63;;;;;;;23.53;100.00;100129.78;12216286;19;20007;-84
2023/08/20 01:10:08;;;;;;;15.77;6.57;;;;;;;23.48;100.00;100125.16;12263417;19;20007;-82
2023/08/20 01:14:16;;;;;;;11.15;6.10;;;;;;;23.45;100.00;100128.63;12241561;19;20047;-83
2023/08/20 01:18:18;;;;;;;16.70;7.25;;;;;;;23.45;100.00;100142.69;12236143;19;20010;-84
2023/08/20 01:22:51;;;;;;;12.37;6.90;;;;;;;23.41;100.00;100133.28;12217781;19;20031;-83
2023/08/20 01:27:33;;;;;;;10.55;6.75;;;;;;;23.37;100.00;100116.19;12186255;19;20018;-83
2023/08/20 01:31:35;;;;;;;12.07;6.70;;;;;;;23.31;100.00;100114.72;12202765;19;20014;-83
2023/08/20 01:35:37;;;;;;;11.70;6.57;;;;;;;23.27;100.00;100112.91;12181602;19;20011;-83
2023/08/20 01:39:48;;;;;;;12.38;7.35;;;;;;;23.22;100.00;100115.84;12204536;19;20015;-83
2023/08/20 01:43:50;;;;;;;10.38;6.85;;;;;;;23.14;100.00;100117.47;12211092;19;20002;-83
2023/08/20 01:47:52;;;;;;;15.10;6.97;;;;;;;23.10;100.00;100113.66;12177117;19;20015;-83
2023/08/20 01:51:54;;;;;;;17.33;7.55;;;;;;;23.02;100.00;100101.22;12199787;19;20018;-83
2023/08/20 01:55:56;;;;;;;16.87;7.00;;;;;;;22.95;100.00;100092.47;12179260;19;20017;-83
2023/08/20 01:59:58;;;;;;;17.60;7.10;;;;;;;22.88;100.00;100094.91;12208984;19;20019;-83
2023/08/20 02:04:00;;;;;;;14.77;7.40;;;;;;;22.83;100.00;100078.19;12219700;19;20023;-83
2023/08/20 02:08:03;;;;;;;13.10;8.20;;;;;;;22.78;100.00;100083.94;12194531;19;20019;-83
2023/08/20 02:12:07;;;;;;;15.15;7.90;;;;;;;22.72;100.00;100095.31;12212350;19;19999;-83
2023/08/20 02:16:08;;;;;;;;;;;;;;;22.67;100.00;100095.47;12214033;19;20015;-83
2023/08/20 02:20:11;;;;;;;14.07;7.63;;;;;;;22.68;100.00;100105.56;12194458;19;19915;-83
2023/08/20 02:24:13;;;;;;;15.85;8.00;;;;;;;22.65;100.00;100106.19;12213444;19;20020;-83
2023/08/20 02:28:15;;;;;;;18.35;8.32;;;;;;;22.61;100.00;100110.81;12213792;19;20022;-84
2023/08/20 02:32:16;;;;;;;16.50;9.10;;;;;;;22.58;100.00;100114.28;12190025;19;20091;-83
2023/08/20 02:36:18;;;;;;;13.87;7.77;;;;;;;22.53;100.00;100106.81;12212213;19;20069;-83
2023/08/20 02:40:20;;;;;;;17.20;8.07;;;;;;;22.50;100.00;100118.69;12209844;19;20027;-83
2023/08/20 02:44:22;;;;;;;14.02;8.38;;;;;;;22.43;100.00;100131.53;12193584;19;20014;-83
2023/08/20 02:48:28;;;;;;;;;;;;;;;22.32;100.00;100132.97;12213465;19;20018;-83
2023/08/20 02:52:29;;;;;;;15.27;9.13;;;;;;;22.32;100.00;100144.19;12211525;19;19928;-83
2023/08/20 02:56:31;;;;;;;15.60;8.87;;;;;;;22.32;100.00;100130.97;12191507;19;20018;-83
2023/08/20 03:00:33;;;;;;;14.98;9.48;;;;;;;22.25;100.00;100131.44;12213926;19;20887;-84
2023/08/20 03:04:35;;;;;;;15.73;9.17;;;;;;;22.25;100.00;100139.84;12211276;19;20006;-83
2023/08/20 03:08:37;;;;;;;16.73;9.48;;;;;;;22.23;100.00;100139.34;12190500;19;20582;-83
2023/08/20 03:12:38;;;;;;;15.90;8.70;;;;;;;22.22;100.00;100132.06;12207494;19;20010;-83
2023/08/20 03:16:40;;;;;;;16.75;8.93;;;;;;;22.15;100.00;100123.22;12213249;19;20006;-84
2023/08/20 03:20:42;;;;;;;17.07;8.53;;;;;;;22.15;100.00;100126.03;12189806;19;20086;-83
2023/08/20 03:24:44;;;;;;;15.00;9.27;;;;;;;22.16;100.00;100107.22;12210924;19;20017;-83
2023/08/20 03:28:46;;;;;;;14.40;9.40;;;;;;;22.17;100.00;100112.53;12209365;19;20782;-83
2023/08/20 03:32:49;;;;;;;12.90;9.63;;;;;;;22.17;100.00;100106.94;12187003;19;20014;-83
2023/08/20 03:36:51;;;;;;;11.93;9.52;;;;;;;22.17;100.00;100109.75;12210170;19;20518;-83
2023/08/20 03:40:55;;;;;;;17.40;9.52;;;;;;;22.19;100.00;100110.25;12201273;19;20006;-83
2023/08/20 03:44:57;;;;;;;14.90;9.82;;;;;;;22.18;100.00;100113.38;12211965;19;20007;-83
2023/08/20 03:48:58;;;;;;;13.43;9.15;;;;;;;22.17;100.00;100111.72;12210332;19;20018;-83
2023/08/20 03:53:01;;;;;;;15.57;9.18;;;;;;;22.13;100.00;100105.03;12185586;19;20013;-83
2023/08/20 03:57:03;;;;;;;14.33;9.60;;;;;;;22.08;100.00;100111.63;12212930;19;20018;-83
2023/08/20 04:01:05;;;;;;;12.47;9.43;;;;;;;22.04;100.00;100110.59;12215193;19;20011;-84
2023/08/20 04:05:07;;;;;;;11.57;8.57;;;;;;;22.00;100.00;100106.78;12186809;19;20487;-83
2023/08/20 04:09:09;;;;;;;23.70;11.47;;;;;;;21.93;100.00;100110.03;12211289;19;20006;-83
2023/08/20 04:13:13;;;;;;;15.38;9.88;;;;;;;21.91;100.00;100131.13;12205833;19;20122;-83
2023/08/20 04:17:15;;;;;;;14.32;9.80;;;;;;;21.88;100.00;100134.59;12187791;19;20015;-83
2023/08/20 04:21:17;;;;;;;14.40;9.33;;;;;;;21.84;100.00;100135.22;12211962;19;20007;-83
2023/08/20 04:25:19;;;;;;;15.07;9.90;;;;;;;21.83;100.00;100144.78;12210080;19;20397;-83
2023/08/20 04:29:22;;;;;;;19.90;10.13;;;;;;;21.84;100.00;100148.41;12185849;19;20034;-83
2023/08/20 04:33:23;;;;;;;18.73;10.53;;;;;;;21.85;100.00;100153.69;12204545;19;20091;-83
2023/08/20 04:37:26;;;;;;;;;;;;;;;21.85;100.00;100150.88;12211558;19;20010;-83
2023/08/20 04:41:28;;;;;;;23.73;11.50;;;;;;;21.85;100.00;100153.69;12191251;19;19949;-83
2023/08/20 04:45:30;;;;;;;16.10;10.95;;;;;;;21.82;100.00;100164.72;12206440;19;20010;-83
2023/08/20 04:49:32;;;;;;;21.30;10.73;;;;;;;21.85;100.00;100172.50;12207788;19;20033;-83
2023/08/20 04:53:35;;;;;;;15.48;11.18;;;;;;;21.88;100.00;100177.50;12184186;19;20018;-83
2023/08/20 04:57:37;;;;;;;16.67;11.20;;;;;;;21.92;100.00;100178.53;12210658;19;20027;-83
2023/08/20 05:01:39;;;;;;;17.08;10.32;;;;;;;22.00;100.00;100182.53;12213231;19;20533;-83
2023/08/20 05:05:41;;;;;;;20.00;10.55;;;;;;;22.07;100.00;100172.53;12185685;19;20018;-83
2023/08/20 05:09:43;;;;;;;20.90;11.40;;;;;;;22.11;100.00;100174.72;12209819;19;20013;-84
2023/08/20 05:13:47;;;;;;;14.15;9.60;;;;;;;22.11;100.00;100178.34;12205488;19;20384;-84
2023/08/20 05:17:49;;;;;;;17.05;10.93;;;;;;;22.19;100.00;100180.44;12186056;19;20006;-83
2023/08/20 05:21:52;;;;;;;13.97;10.77;;;;;;;22.27;100.00;100176.84;12208595;19;20474;-83
2023/08/20 05:25:54;;;;;;;13.85;10.05;;;;;;;22.33;100.00;100173.91;12186209;19;20256;-83
2023/08/20 05:29:56;;;;;;;14.37;10.60;;;;;;;22.38;100.00;100173.78;12205128;19;20014;-83
2023/08/20 05:33:58;;;;;;;15.33;10.17;;;;;;;22.49;100.00;100186.41;12204447;19;20018;-84
2023/08/20 05:38:00;;;;;;;;;;;;;;;22.60;100.00;100196.22;12189383;19;20014;-83
2023/08/20 05:42:03;;;;;;;16.08;10.07;;;;;;;22.67;100.00;100202.22;12212295;19;19915;-83
2023/08/20 05:46:05;;;;;;;17.65;9.35;;;;;;;22.73;100.00;100200.09;12207750;19;20014;-84
2023/08/20 05:50:07;;;;;;;17.17;10.18;;;;;;;22.80;100.00;100202.44;12186581;19;20010;-83
2023/08/20 05:54:09;;;;;;;20.15;10.45;;;;;;;22.87;100.00;100214.03;12207183;19;20010;-84
2023/08/20 05:58:11;;;;;;;13.13;8.98;;;;;;;22.96;100.00;100214.94;12210097;19;20094;-84
2023/08/20 06:02:17;;;;;;;14.47;9.93;;;;;;;23.08;100.00;100206.75;12189272;19;20060;-83
2023/08/20 06:06:19;;;;;;;15.98;9.23;;;;;;;23.13;100.00;100214.22;12208028;19;20010;-84
2023/08/20 06:10:21;;;;;;;17.00;9.73;;;;;;;23.22;100.00;100220.69;12210303;19;20014;-83
2023/08/20 06:14:23;;;;;;;13.13;9.33;;;;;;;23.30;100.00;100203.03;12183628;19;20086;-83
2023/08/20 06:18:24;;;;;;;16.97;10.13;;;;;;;23.37;100.00;100219.44;12207839;19;20011;-83
2023/08/20 06:22:26;;;;;;;13.43;8.73;;;;;;;23.45;100.00;100218.63;12207950;19;20026;-83
2023/08/20 06:26:28;;;;;;;14.97;8.87;;;;;;;23.52;100.00;100218.16;12185566;19;20228;-83
2023/08/20 06:30:30;;;;;;;11.80;9.20;;;;;;;23.61;100.00;100224.63;12205030;19;20078;-83
2023/08/20 06:34:34;;;;;;;16.83;9.53;;;;;;;23.66;100.00;100222.47;12205798;19;20022;-84
2023/08/20 06:38:36;;;;;;;12.60;8.55;;;;;;;23.77;100.00;100231.50;12186751;19;20021;-83
2023/08/20 06:42:38;;;;;;;13.00;8.67;;;;;;;23.86;100.00;100235.13;12208556;19;20533;-84
2023/08/20 06:46:41;;;;;;;15.85;8.95;;;;;;;23.99;100.00;100233.31;12216894;19;20368;-84
2023/08/20 06:50:43;;;;;;;14.30;8.20;;;;;;;24.13;100.00;100236.00;12198569;19;20023;-83
2023/08/20 06:54:45;;;;;;;13.43;8.50;;;;;;;24.32;100.00;100238.47;12220232;19;20011;-84
2023/08/20 06:58:46;;;;;;;12.87;8.13;;;;;;;24.55;100.00;100231.53;12222305;19;20031;-84
2023/08/20 07:02:48;;;;;;;13.40;8.43;;;;;;;24.83;100.00;100235.94;12199107;19;20443;-84
2023/08/20 07:06:51;;;;;;;15.10;8.27;;;;;;;25.10;100.00;100241.16;12219876;19;20010;-84
2023/08/20 07:10:52;;;;;;;10.60;8.32;;;;;;;25.36;100.00;100241.09;12216211;19;20023;-85
2023/08/20 07:14:54;;;;;;;12.52;7.68;;;;;;;25.73;100.00;100247.06;12217032;19;20017;-84
2023/08/20 07:18:56;;;;;;;10.43;7.70;;;;;;;26.07;100.00;100248.00;12223254;19;20079;-84
2023/08/20 07:22:58;;;;;;;12.30;8.20;;;;;;;26.26;100.00;100242.69;12200585;19;20014;-84
2023/08/20 07:27:02;;;;;;;10.13;7.90;;;;;;;26.26;100.00;100242.69;12221852;19;20011;-84
2023/08/20 07:31:04;;;;;;;11.73;7.60;;;;;;;26.31;100.00;100227.56;12218111;19;20062;-84
2023/08/20 07:35:07;;;;;;;10.07;7.20;;;;;;;26.45;100.00;100235.75;12199815;19;20022;-84
2023/08/20 07:39:12;;;;;;;12.70;7.93;;;;;;;26.61;100.00;100242.44;12221206;19;20042;-84
2023/08/20 07:43:18;;;;;;;10.27;7.85;;;;;;;26.75;100.00;100242.13;12219648;19;20022;-84
2023/08/20 07:47:20;;;;;;;16.10;7.70;;;;;;;26.86;100.00;100245.31;12193351;19;20023;-83
2023/08/20 07:51:21;;;;;;;11.52;7.22;;;;;;;26.87;100.00;100247.00;12214613;19;20010;-84
2023/08/20 07:55:24;;;;;;;8.82;7.13;;;;;;;27.10;100.00;100242.56;12213459;19;20002;-83
2023/08/20 07:59:25;;;;;;;12.68;7.63;;;;;;;27.29;100.00;100244.03;12192346;19;20015;-84
2023/08/20 08:03:27;;;;;;;11.60;7.68;;;;;;;27.34;100.00;100241.81;12212825;19;20018;-83
2023/08/20 08:07:29;;;;;;;;;;;;;;;27.56;100.00;100249.00;12213964;19;20018;-83
2023/08/20 08:11:31;;;;;;;12.13;7.82;;;;;;;27.63;100.00;100245.56;12191126;19;19915;-83
2023/08/20 08:15:33;;;;;;;12.38;7.75;;;;;;;27.79;100.00;100243.72;12212522;19;20134;-84
2023/08/20 08:19:35;;;;;;;10.98;7.85;;;;;;;27.96;100.00;100251.09;12217049;19;20014;-84
2023/08/20 08:23:37;;;;;;;11.43;7.95;;;;;;;28.12;100.00;100262.53;12193601;19;20010;-84
2023/08/20 08:27:38;;;;;;;10.90;7.35;;;;;;;28.28;100.00;100259.78;12212185;19;20006;-84
2023/08/20 08:31:58;;;;;;;9.60;7.72;;;;;;;28.48;98.34;100267.31;12190539;19;20070;-83
2023/08/20 08:36:00;;;;;;;10.80;7.65;;;;;;;28.61;95.79;100266.06;12211340;19;20465;-83
2023/08/20 08:40:05;;;;;;;10.10;7.68;;;;;;;28.75;92.54;100264.84;12213827;19;20109;-83
2023/08/20 08:44:09;;;;;;;12.00;7.88;;;;;;;28.79;92.47;100266.59;12189966;19;20015;-84
2023/08/20 08:48:11;;;;;;;8.68;7.30;;;;;;;28.92;89.81;100264.50;12210412;19;20014;-84
2023/08/20 08:52:13;;;;;;;10.07;7.40;;;;;;;29.06;89.83;100269.78;12209324;19;20010;-84
2023/08/20 08:56:15;;;;;;;;;;;;;;;29.20;90.04;100264.47;12190185;19;20522;-83
2023/08/20 09:00:17;;;;;;;10.23;7.43;;;;;;;29.38;89.60;100264.13;12210126;19;19994;-83
2023/08/20 09:04:19;;;;;;;8.18;7.30;;;;;;;29.61;89.50;100255.78;12208919;19;20031;-83
2023/08/20 09:08:27;;;;;;;12.63;7.43;;;;;;;29.69;85.69;100266.19;12188118;19;20014;-83
2023/08/20 09:12:34;;;;;;;9.35;6.63;;;;;;;29.84;83.60;100273.84;12209363;19;20043;-83
2023/08/20 09:16:36;;;;;;;12.93;8.32;;;;;;;30.09;82.80;100265.88;12212942;19;20551;-83
2023/08/20 09:20:38;;;;;;;8.73;7.55;;;;;;;30.29;77.85;100257.44;12186347;19;20054;-83
2023/08/20 09:24:45;;;;;;;11.57;6.93;;;;;;;30.30;81.50;100270.44;12208976;19;20070;-84
2023/08/20 09:28:47;;;;;;;9.43;7.03;;;;;;;30.60;79.85;100265.81;12210785;19;20003;-83
2023/08/20 09:33:04;;;;;;;12.18;7.20;;;;;;;30.71;78.50;100263.19;12188354;19;20011;-83
2023/08/20 09:37:10;;;;;;;12.90;7.20;;;;;;;30.74;74.86;100256.75;12210340;19;20481;-85
2023/08/20 09:41:12;;;;;;;8.60;7.03;;;;;;;30.97;77.00;100258.84;12191546;19;20574;-84
2023/08/20 09:45:16;;;;;;;10.13;6.90;;;;;;;31.08;72.80;100268.41;12210805;19;20075;-84
2023/08/20 09:49:19;;;;;;;9.73;6.80;;;;;;;31.18;70.32;100264.94;12208764;19;20094;-84
2023/08/20 09:53:31;;;;;;;9.30;7.25;;;;;;;31.15;72.00;100260.00;12186524;19;20027;-85
2023/08/20 09:57:35;;;;;;;;;;;;;;;31.43;72.64;100259.72;12211028;19;20010;-84
2023/08/20 10:01:38;;;;;;;7.32;5.93;;;;;;;31.67;66.61;100244.25;12208683;19;20753;-84
2023/08/20 10:05:40;;;;;;;8.07;6.20;;;;;;;31.79;67.07;100248.91;12187351;19;20832;-84
2023/08/20 10:09:45;;;;;;;;;;;;;;;31.76;65.94;100252.53;12210413;19;20007;-84
2023/08/20 10:13:47;;;;;;;9.15;6.43;;;;;;;31.65;64.08;100249.53;12207591;19;19945;-84
2023/08/20 10:17:49;;;;;;;7.38;5.82;;;;;;;31.67;63.24;100258.47;12195657;19;20027;-84
2023/08/20 10:21:56;;;;;;;12.57;5.85;;;;;;;31.83;61.68;100254.66;12249151;19;20010;-85
2023/08/20 10:26:07;;;;;;;8.88;5.32;;;;;;;31.91;56.49;100250.75;12229056;19;21074;-84
2023/08/20 10:30:15;;;;;;;8.63;5.35;;;;;;;31.99;57.50;100250.47;12251556;19;20014;-85
2023/08/20 10:34:34;;;;;;;7.75;5.18;;;;;;;32.11;57.33;100252.25;12249532;19;20021;-85
2023/08/20 10:38:37;;;;;;;8.05;4.65;;;;;;;32.15;56.15;100253.13;12234544;19;20019;-85
2023/08/20 10:42:42;;;;;;;7.90;4.65;;;;;;;32.29;55.73;100249.66;12250951;19;20501;-84
2023/08/20 10:46:51;;;;;;;5.65;4.57;;;;;;;32.40;53.35;100246.97;12253536;19;20006;-85
2023/08/20 10:50:53;;;;;;;12.10;5.80;;;;;;;32.43;54.44;100244.16;12224702;19;20045;-85
2023/08/20 10:54:56;;;;;;;6.55;4.90;;;;;;;32.61;54.09;100241.53;12241611;19;20619;-85
2023/08/20 10:59:06;;;;;;;11.27;5.85;;;;;;;32.82;55.32;100245.88;12230184;19;20019;-82
2023/08/20 11:03:08;;;;;;;7.47;5.35;;;;;;;33.11;55.23;100244.97;12253326;19;20019;-84
2023/08/20 11:07:10;;;;;;;6.57;4.93;;;;;;;33.38;52.54;100239.09;12254325;19;20007;-86
2023/08/20 11:11:12;;;;;;;7.40;5.30;;;;;;;33.49;51.97;100237.13;12252735;19;20015;-84
2023/08/20 11:15:14;;;;;;;8.70;4.75;;;;;;;33.53;51.62;100243.75;12268938;19;20074;-84
2023/08/20 11:19:20;;;;;;;;;;;;;;;33.56;50.54;100237.25;12255679;19;20010;-83
2023/08/20 11:23:22;;;;;;;7.72;4.57;;;;;;;33.53;48.09;100240.91;12212391;19;19944;-84
2023/08/20 11:27:27;;;;;;;8.68;4.85;;;;;;;33.40;49.79;100225.22;12237632;19;20019;-84
2023/08/20 11:31:29;;;;;;;9.18;5.07;;;;;;;33.63;49.76;100242.19;12234194;19;20011;-84
2023/08/20 11:35:33;;;;;;;9.18;4.10;;;;;;;33.78;46.08;100235.34;12205501;19;20007;-84
2023/08/20 11:39:36;;;;;;;8.13;4.70;;;;;;;33.87;46.85;100222.75;12219619;19;20006;-84
2023/08/20 11:43:41;;;;;;;5.35;4.32;;;;;;;34.28;46.10;100231.19;12218811;19;20418;-85
2023/08/20 11:47:43;;;;;;;9.57;5.95;;;;;;;34.51;46.38;100225.13;12199057;19;20007;-84
2023/08/20 11:51:49;;;;;;;5.65;4.95;;;;;;;35.03;43.62;100226.53;12219809;19;20014;-84
2023/08/20 11:55:51;;;;;;;7.88;4.43;;;;;;;35.72;40.67;100216.78;12225974;19;20006;-83
2023/08/20 11:59:53;;;;;;;6.65;4.82;;;;;;;36.47;41.69;100213.72;12211200;19;20007;-84
2023/08/20 12:04:00;;;;;;;7.05;5.18;;;;;;;36.96;38.53;100214.69;12221963;19;20029;-84
2023/08/20 12:08:03;;;;;;;7.47;4.35;;;;;;;37.55;37.68;100213.88;12200023;19;20477;-84
2023/08/20 12:12:08;;;;;;;7.35;5.18;;;;;;;38.25;36.23;100213.56;12218478;19;20430;-85
2023/08/20 12:16:10;;;;;;;9.18;5.18;;;;;;;38.54;35.95;100201.72;12218495;19;20033;-85
2023/08/20 12:20:12;;;;;;;9.38;5.25;;;;;;;38.93;34.78;100198.28;12197391;19;20023;-86
2023/08/20 12:24:14;;;;;;;5.60;4.97;;;;;;;39.40;34.52;100189.72;12218252;19;20007;-84
2023/08/20 12:28:17;;;;;;;5.93;5.32;;;;;;;39.58;33.01;100194.38;12214928;19;20399;-85
2023/08/20 12:32:19;;;;;;;5.97;4.90;;;;;;;39.74;32.60;100188.72;12194945;19;20042;-84
2023/08/20 12:36:21;;;;;;;6.70;5.28;;;;;;;40.30;32.74;100191.75;12216294;19;20497;-84
2023/08/20 12:40:22;;;;;;;8.13;4.85;;;;;;;40.60;30.93;100186.97;12216433;19;20011;-84
2023/08/20 12:44:24;;;;;;;7.78;5.05;;;;;;;40.77;30.65;100185.78;12190716;19;20070;-86
2023/08/20 12:48:26;;;;;;;5.60;4.35;;;;;;;41.06;30.29;100184.31;12215503;19;20367;-85
2023/08/20 12:52:28;;;;;;;5.90;4.30;;;;;;;41.42;29.99;100184.22;12214471;19;20035;-85
2023/08/20 12:56:30;;;;;;;6.45;4.10;;;;;;;41.65;29.97;100180.34;12193676;19;20074;-85
2023/08/20 13:00:32;;;;;;;8.15;4.65;;;;;;;42.35;28.62;100175.91;12214099;19;20081;-84
2023/08/20 13:04:35;;;;;;;7.07;3.70;;;;;;;42.68;27.26;100175.72;12214725;19;20694;-85
2023/08/20 13:08:37;;;;;;;7.88;4.18;;;;;;;42.59;26.91;100158.22;12195564;19;20750;-85
2023/08/20 13:12:41;;;;;;;6.78;4.40;;;;;;;42.86;26.67;100155.69;12214162;19;20027;-84
2023/08/20 13:16:43;;;;;;;5.22;4.28;;;;;;;42.95;25.91;100152.88;12217061;19;20014;-85
2023/08/20 13:20:45;;;;;;;6.07;4.32;;;;;;;42.60;26.41;100159.81;12190526;19;20074;-85
2023/08/20 13:24:47;;;;;;;6.30;4.30;;;;;;;43.16;25.80;100159.28;12214916;19;20006;-85
2023/08/20 13:28:49;;;;;;;5.32;4.72;;;;;;;43.31;25.90;100153.81;12216514;19;20018;-85
2023/08/20 13:32:51;;;;;;;6.03;4.15;;;;;;;43.22;26.07;100152.44;12195938;19;20019;-85
2023/08/20 13:36:52;;;;;;;7.57;4.00;;;;;;;42.99;25.71;100153.59;12216312;19;20006;-84
2023/08/20 13:40:55;;;;;;;5.82;4.18;;;;;;;43.35;25.44;100151.59;12192601;19;20074;-85
2023/08/20 13:44:57;;;;;;;4.72;3.88;;;;;;;43.66;24.92;100148.84;12212363;19;20017;-85
2023/08/20 13:48:59;;;;;;;5.00;4.35;;;;;;;43.85;24.43;100156.44;12216344;19;20015;-85
2023/08/20 13:53:01;;;;;;;5.28;3.78;;;;;;;43.19;24.74;100143.84;12192958;19;20126;-85
2023/08/20 13:57:03;;;;;;;6.05;3.92;;;;;;;43.00;24.22;100140.72;12227597;19;20010;-86
2023/08/20 14:01:06;;;;;;;5.03;4.05;;;;;;;42.08;25.51;100136.53;12244086;19;20011;-85
2023/08/20 14:05:09;;;;;;;4.80;3.78;;;;;;;42.02;26.39;100144.16;12212607;19;20014;-85
2023/08/20 14:09:11;;;;;;;6.00;4.15;;;;;;;41.92;26.53;100145.31;12222297;19;20006;-85
2023/08/20 14:13:12;;;;;;;5.25;4.07;;;;;;;41.05;27.94;100142.22;12220894;19;20085;-84
2023/08/20 14:17:14;;;;;;;5.32;4.20;;;;;;;40.18;29.57;100134.69;12199964;19;20021;-84
2023/08/20 14:21:16;;;;;;;5.55;4.25;;;;;;;39.40;29.94;100137.84;12217495;19;20066;-84
2023/08/20 14:25:18;;;;;;;6.53;4.38;;;;;;;38.72;30.87;100138.91;12221861;19;20018;-84
2023/08/20 14:29:20;;;;;;;9.25;4.60;;;;;;;38.02;30.52;100136.59;12198087;19;20011;-84
2023/08/20 14:33:22;;;;;;;5.75;4.45;;;;;;;37.91;31.20;100133.00;12216176;19;20571;-84
2023/08/20 14:37:23;;;;;;;6.20;4.45;;;;;;;37.79;31.34;100136.41;12220968;19;20025;-84
2023/08/20 14:41:25;;;;;;;6.90;4.40;;;;;;;37.60;31.54;100132.94;12197031;19;20471;-83
2023/08/20 14:45:27;;;;;;;7.68;4.95;;;;;;;37.26;32.27;100134.88;12231622;19;20018;-84
2023/08/20 14:49:29;;;;;;;8.68;4.13;;;;;;;37.00;32.21;100137.16;12221536;19;20384;-84
2023/08/20 14:53:31;;;;;;;6.03;5.07;;;;;;;36.72;32.46;100136.09;12198775;19;20062;-83
2023/08/20 14:57:32;;;;;;;7.28;4.68;;;;;;;36.75;32.91;100125.03;12221585;19;20011;-85
2023/08/20 15:01:50;;;;;;;7.25;4.45;;;;;;;36.94;32.20;100124.44;12221580;19;20030;-84
2023/08/20 15:05:52;;;;;;;9.30;4.95;;;;;;;36.94;32.50;100124.44;12196296;19;20011;-84
2023/08/20 15:09:54;;;;;;;7.68;4.72;;;;;;;36.40;33.09;100113.31;12220025;19;20074;-84
2023/08/20 15:13:56;;;;;;;8.20;4.30;;;;;;;35.90;33.46;100104.91;12194261;19;20074;-83
2023/08/20 15:17:57;;;;;;;5.85;4.30;;;;;;;35.59;34.47;100103.81;12219920;19;20037;-84
2023/08/20 15:21:59;;;;;;;6.68;4.07;;;;;;;35.10;34.90;100112.06;12219015;19;20340;-84
2023/08/20 15:26:01;;;;;;;8.43;4.03;;;;;;;34.83;35.54;100108.72;12195712;19;20011;-83
2023/08/20 15:30:04;;;;;;;7.25;4.47;;;;;;;34.59;35.67;100106.66;12218755;19;20359;-83
2023/08/20 15:34:06;;;;;;;9.48;4.00;;;;;;;34.34;36.27;100104.53;12213623;19;20770;-83
2023/08/20 15:38:08;;;;;;;7.28;3.97;;;;;;;34.16;36.92;100110.22;12196437;19;20014;-84
2023/08/20 15:42:09;;;;;;;7.35;4.32;;;;;;;34.02;36.93;100105.22;12216402;19;20494;-83
2023/08/20 15:46:11;;;;;;;7.20;4.75;;;;;;;33.96;37.43;100111.72;12215643;19;20011;-83
2023/08/20 15:50:13;;;;;;;6.28;4.70;;;;;;;33.84;38.04;100104.31;12193425;19;20520;-83
2023/08/20 15:54:15;;;;;;;;;;;;;;;33.73;38.09;100112.03;12217724;19;20015;-83
2023/08/20 15:58:17;;;;;;;5.32;4.15;;;;;;;33.68;37.19;100106.72;12218256;19;20703;-84
2023/08/20 16:02:19;;;;;;;6.15;4.28;;;;;;;33.68;38.01;100103.84;12198242;19;20014;-84
2023/08/20 16:06:21;;;;;;;;;;;;;;;33.58;38.60;100106.25;12218638;19;20024;-84
2023/08/20 16:10:23;;;;;;;7.00;4.68;;;;;;;33.63;38.39;100105.03;12219706;19;19974;-83
2023/08/20 16:14:25;;;;;;;8.13;4.57;;;;;;;33.80;38.47;100100.66;12193849;19;20035;-84
2023/08/20 16:18:26;;;;;;;7.25;4.40;;;;;;;34.58;37.84;100088.69;12216358;19;20014;-83
2023/08/20 16:22:29;;;;;;;;;;;;;;;34.31;37.86;100093.91;12217756;19;20007;-84
2023/08/20 16:26:31;;;;;;;8.63;4.78;;;;;;;34.14;38.40;100100.38;12198358;19;19918;-84
2023/08/20 16:30:35;;;;;;;6.20;4.57;;;;;;;33.96;38.21;100101.09;12219802;19;20082;-85
2023/08/20 16:34:37;;;;;;;6.80;4.60;;;;;;;33.75;38.86;100101.03;12215335;19;20023;-85
2023/08/20 16:38:39;;;;;;;;;;;;;;;33.63;38.81;100099.31;12198443;19;20382;-85
2023/08/20 16:42:41;;;;;;;10.48;4.88;;;;;;;33.53;41.13;100098.06;12217347;19;19918;-84
2023/08/20 16:46:42;;;;;;;7.85;4.93;;;;;;;33.30;40.46;100098.28;12219438;19;20497;-83
2023/08/20 16:50:44;;;;;;;;;;;;;;;33.06;40.41;100099.72;12197794;19;20006;-84
2023/08/20 16:54:47;;;;;;;8.63;4.60;;;;;;;33.00;42.31;100111.91;12217274;19;19923;-85
2023/08/20 16:58:49;;;;;;;6.75;4.90;;;;;;;32.84;42.36;100103.56;12220628;19;20007;-84
2023/08/20 17:02:51;;;;;;;;;;;;;;;32.68;42.94;100101.00;12201081;19;20007;-83
2023/08/20 17:06:53;;;;;;;7.57;4.85;;;;;;;32.50;45.61;100103.69;12211002;19;19907;-83
2023/08/20 17:11:11;;;;;;;10.65;5.00;;;;;;;32.37;48.11;100096.59;12188441;19;20027;-83
2023/08/20 17:15:13;;;;;;;8.57;5.65;;;;;;;32.80;47.26;100083.56;12211423;19;20078;-83
2023/08/20 17:19:16;;;;;;;8.60;5.18;;;;;;;33.00;48.02;100086.22;12215306;19;20032;-84
2023/08/20 17:23:18;;;;;;;9.57;5.65;;;;;;;33.11;47.36;100099.38;12186454;19;20074;-83
2023/08/20 17:27:20;;;;;;;7.40;5.30;;;;;;;32.75;48.41;100097.38;12210128;19;20015;-84
2023/08/20 17:31:21;;;;;;;8.75;5.28;;;;;;;32.42;51.52;100099.06;12207418;19;20545;-84
2023/08/20 17:35:23;;;;;;;;;;;;;;;32.05;51.50;100099.88;12187088;19;20010;-83
2023/08/20 17:39:25;;;;;;;9.60;5.20;;;;;;;31.85;53.73;100098.38;12214949;19;19915;-83
2023/08/20 17:43:27;;;;;;;8.60;5.00;;;;;;;31.71;54.86;100094.16;12206730;19;20024;-83
2023/08/20 17:47:28;;;;;;;8.75;5.30;;;;;;;31.44;57.14;100095.38;12187099;19;20032;-83
2023/08/20 17:51:30;;;;;;;7.78;4.90;;;;;;;31.31;57.32;100089.88;12207837;19;20015;-83
2023/08/20 17:55:32;;;;;;;;;;;;;;;31.35;56.10;100092.78;12209922;19;20647;-84
2023/08/20 17:59:34;;;;;;;9.18;4.75;;;;;;;31.27;57.55;100091.03;12186430;19;19919;-83
2023/08/20 18:03:36;;;;;;;6.93;4.60;;;;;;;30.94;59.57;100091.75;12206241;19;20581;-83
2023/08/20 18:07:38;;;;;;;6.85;4.90;;;;;;;30.57;62.29;100098.78;12206094;19;20010;-83
2023/08/20 18:11:40;;;;;;;;;;;;;;;30.23;62.26;100105.44;12186865;19;20857;-83
2023/08/20 18:15:42;;;;;;;11.45;5.07;;;;;;;29.92;63.97;100107.19;12207009;19;19919;-83
2023/08/20 18:19:44;;;;;;;8.07;4.97;;;;;;;29.62;66.03;100109.81;12209592;19;20115;-83
2023/08/20 18:23:45;;;;;;;8.00;4.85;;;;;;;29.34;67.88;100107.94;12183377;19;20006;-82
2023/08/20 18:27:47;;;;;;;8.73;5.75;;;;;;;29.09;69.21;100115.81;12205409;19;20067;-82
2023/08/20 18:31:50;;;;;;;9.93;5.07;;;;;;;28.85;70.12;100126.19;12207126;19;20014;-84